Time;durP1;ratioP1;P1;durP2;ratioP2;P2;SDS_P1;SDS_P2;PMS_P1;PMS_P2;Temp;Humidity;BMP_temperature;BMP_pressure;BME280_temperature;BME280_humidity;BME280_pressure;Samples;Min_cycle;Max_cycle;Signal;HPM_P1;HPM_P2
2022/01/21 00:01:08;;;;;;;7.00;1.55;;;;;;;0.39;44.72;101591.72;5116320;28;20466;-70
2022/01/21 00:03:36;;;;;;;5.68;1.42;;;;;;;0.64;44.30;101588.78;5116859;28;20067;-70
2022/01/21 00:06:06;;;;;;;6.00;1.52;;;;;;;0.67;44.24;101593.03;5115896;28;20395;-70
2022/01/21 00:08:34;;;;;;;10.30;1.38;;;;;;;0.82;43.73;101600.22;5115632;28;20095;-71
2022/01/21 00:11:05;;;;;;;4.78;1.35;;;;;;;0.75;43.82;101590.91;5115863;28;20100;-70
2022/01/21 00:13:36;;;;;;;7.45;1.10;;;;;;;0.48;43.94;101599.22;5115944;28;20480;-70
2022/01/21 00:16:18;;;;;;;14.20;1.93;;;;;;;0.39;44.25;101594.38;5115995;28;20464;-70
2022/01/21 00:18:57;;;;;;;6.95;1.55;;;;;;;0.75;43.62;101604.97;5115657;28;20039;-70
2022/01/21 00:32:26;;;;;;;10.93;1.33;;;;;;;0.73;43.34;101613.88;5112629;28;20044;-70
2022/01/21 00:34:52;;;;;;;8.60;1.50;;;;;;;0.64;43.52;101609.03;5114870;28;20077;-70
2022/01/21 00:37:19;;;;;;;8.02;1.10;;;;;;;0.73;43.13;101613.88;5116071;28;20379;-70
2022/01/21 00:39:51;;;;;;;13.70;2.45;;;;;;;0.71;43.12;101621.00;5117204;28;20044;-70
2022/01/21 00:44:52;;;;;;;8.35;1.33;;;;;;;0.85;42.90;101625.63;5119356;28;20131;-72
2022/01/21 00:47:18;;;;;;;16.88;2.08;;;;;;;0.48;43.61;101630.06;5118532;28;20044;-70
2022/01/21 00:49:45;;;;;;;8.23;1.73;;;;;;;0.73;42.93;101635.84;5118766;28;20492;-70
2022/01/21 00:52:11;;;;;;;7.55;0.98;;;;;;;0.88;42.81;101644.81;5118381;28;20052;-70
2022/01/21 00:54:40;;;;;;;10.35;1.75;;;;;;;0.60;43.76;101639.16;5118796;28;20509;-70
2022/01/21 00:57:06;;;;;;;8.25;1.33;;;;;;;0.78;43.23;101654.16;5119054;28;20074;-70
2022/01/21 00:59:33;;;;;;;5.53;0.90;;;;;;;0.37;44.29;101649.03;5120698;28;20112;-71
2022/01/21 01:01:59;;;;;;;10.38;1.75;;;;;;;0.20;44.11;101641.03;5118575;28;20061;-69
2022/01/21 01:04:26;;;;;;;5.85;1.35;;;;;;;0.14;43.81;101643.97;5120623;28;20479;-70
2022/01/21 01:06:52;;;;;;;6.93;1.40;;;;;;;0.49;43.44;101659.00;5118775;28;20447;-71
2022/01/21 01:09:19;;;;;;;6.20;1.30;;;;;;;0.39;43.54;101651.59;5119472;28;20035;-71
2022/01/21 01:12:08;;;;;;;5.78;1.13;;;;;;;0.60;43.55;101649.72;5101731;28;20127;-71
2022/01/21 01:20:04;;;;;;;10.07;1.73;;;;;;;0.59;43.17;101648.88;5118885;28;20050;-71
2022/01/21 01:23:02;;;;;;;9.25;1.40;;;;;;;0.27;43.79;101663.59;5119886;28;20054;-71
2022/01/21 01:28:07;;;;;;;7.63;1.00;;;;;;;0.23;44.35;101654.09;5119176;28;20035;-70
2022/01/21 01:30:35;;;;;;;9.82;1.50;;;;;;;0.49;43.52;101663.44;5118412;28;20028;-70
2022/01/21 01:33:08;;;;;;;7.93;0.90;;;;;;;0.28;43.30;101665.28;5118875;28;20050;-71
2022/01/21 01:35:36;;;;;;;12.30;1.13;;;;;;;0.10;43.95;101655.59;5118719;28;20050;-71
2022/01/21 01:40:53;;;;;;;14.18;1.27;;;;;;;0.46;43.58;101669.72;5119124;28;20047;-71
2022/01/21 01:49:26;;;;;;;11.48;1.35;;;;;;;0.67;42.95;101677.56;5119557;28;20080;-71
2022/01/21 01:51:36;;;;;;;3.70;1.02;;;;;;;0.56;43.04;101679.84;5116373;28;20130;-71
2022/01/21 01:54:12;;;;;;;9.75;1.40;;;;;;;0.73;42.63;101678.13;5117631;28;20044;-70
2022/01/21 01:56:43;;;;;;;9.02;1.48;;;;;;;0.85;42.46;101659.97;5117287;28;20139;-70
2022/01/21 01:59:09;;;;;;;7.63;1.42;;;;;;;0.89;42.05;101659.75;5118286;28;20058;-70
2022/01/21 02:01:36;;;;;;;6.32;1.45;;;;;;;0.56;43.15;101659.56;5118070;28;20047;-71
2022/01/21 02:04:03;;;;;;;10.68;1.20;;;;;;;0.74;42.43;101660.47;5117716;28;20408;-70
2022/01/21 02:09:56;;;;;;;7.55;1.35;;;;;;;0.69;42.62;101662.50;5118470;28;20506;-70
2022/01/21 02:12:23;;;;;;;6.85;1.23;;;;;;;0.57;43.15;101671.00;5118626;28;20384;-70
2022/01/21 02:14:52;;;;;;;12.88;1.98;;;;;;;0.74;43.02;101661.34;5118335;28;20047;-70
2022/01/21 02:21:29;;;;;;;14.38;1.58;;;;;;;0.64;42.80;101662.72;5117661;28;20042;-70
2022/01/21 02:22:56;;;;;;;6.97;1.35;;;;;;;0.75;42.56;101668.34;5116549;28;20054;-70
2022/01/21 02:25:22;;;;;;;11.32;1.40;;;;;;;0.70;42.85;101680.06;5115574;28;20050;-70
2022/01/21 02:27:52;;;;;;;12.27;1.30;;;;;;;0.42;43.85;101680.50;5116897;28;20103;-70
2022/01/21 02:30:21;;;;;;;8.50;1.00;;;;;;;0.22;43.80;101681.41;5116012;28;20043;-70
2022/01/21 02:32:50;;;;;;;10.90;1.92;;;;;;;0.34;43.46;101686.13;5116528;28;20070;-70
2022/01/21 02:35:17;;;;;;;9.30;1.42;;;;;;;0.75;42.60;101686.84;5117283;28;20111;-70
2022/01/21 02:37:44;;;;;;;15.80;2.38;;;;;;;0.85;42.52;101689.00;5116605;28;20050;-72
2022/01/21 02:40:12;;;;;;;9.50;1.52;;;;;;;0.31;43.82;101688.91;5115154;28;20050;-70
2022/01/21 02:42:39;;;;;;;9.85;1.50;;;;;;;0.78;42.63;101683.19;5115643;28;20110;-72
2022/01/21 02:45:07;;;;;;;4.50;1.02;;;;;;;0.71;42.76;101682.63;5115487;28;20044;-71
2022/01/21 02:47:34;;;;;;;11.15;1.52;;;;;;;0.58;43.09;101693.84;5116121;28;20040;-71
2022/01/21 02:50:01;;;;;;;10.15;1.10;;;;;;;0.47;43.18;101678.50;5117915;28;20055;-71
2022/01/21 02:52:30;;;;;;;6.88;1.40;;;;;;;0.70;42.67;101693.25;5116456;28;20130;-71
2022/01/21 02:54:56;;;;;;;7.93;1.38;;;;;;;0.50;43.19;101687.16;5116114;28;20406;-71
2022/01/21 02:57:23;;;;;;;7.07;1.17;;;;;;;0.70;42.83;101693.25;5115554;28;20158;-71
2022/01/21 02:59:50;;;;;;;18.13;1.45;;;;;;;0.50;43.04;101696.81;5115714;28;20051;-71
2022/01/21 03:02:17;;;;;;;9.48;1.40;;;;;;;0.37;43.27;101699.19;5115064;28;20062;-71
2022/01/21 03:04:59;;;;;;;10.15;1.80;;;;;;;0.34;43.78;101691.41;5115295;28;20047;-72
2022/01/21 03:07:26;;;;;;;10.02;1.63;;;;;;;0.50;42.82;101705.63;5116514;28;20123;-71
2022/01/21 03:09:52;;;;;;;14.52;0.90;;;;;;;0.51;43.42;101695.91;5115672;28;20058;-71
2022/01/21 03:12:21;;;;;;;8.18;1.38;;;;;;;0.19;43.95;101702.66;5116900;28;20047;-71
2022/01/21 03:14:48;;;;;;;12.60;2.15;;;;;;;0.09;44.03;101698.72;5116025;28;20286;-70
2022/01/21 03:17:14;;;;;;;9.30;1.00;;;;;;;0.24;44.02;101698.88;5116120;28;20055;-71
2022/01/21 03:19:41;;;;;;;13.15;1.40;;;;;;;0.11;43.83;101688.94;5115433;28;20050;-70
2022/01/21 03:22:07;;;;;;;11.05;1.30;;;;;;;0.18;43.52;101693.03;5116488;28;20120;-70
2022/01/21 03:24:33;;;;;;;6.28;1.00;;;;;;;0.13;43.71;101697.66;5115933;28;20055;-70
2022/01/21 03:27:00;;;;;;;5.68;1.10;;;;;;;-0.03;44.17;101703.59;5115380;28;20040;-71
2022/01/21 03:29:26;;;;;;;12.02;1.75;;;;;;;0.59;42.64;101712.25;5114921;28;20059;-71
2022/01/21 03:31:53;;;;;;;9.85;1.65;;;;;;;0.44;42.66;101711.19;5114881;28;20050;-70
2022/01/21 03:34:19;;;;;;;14.60;2.38;;;;;;;0.04;43.34;101720.88;5116308;28;20055;-71
2022/01/21 03:36:46;;;;;;;8.68;1.05;;;;;;;0.19;43.20;101714.09;5107338;28;20048;-70
2022/01/21 03:39:12;;;;;;;5.53;1.30;;;;;;;0.38;42.67;101719.38;5115394;28;20049;-70
2022/01/21 03:41:39;;;;;;;7.25;1.35;;;;;;;0.46;42.52;101725.16;5115625;28;20134;-72
2022/01/21 03:44:05;;;;;;;6.63;1.20;;;;;;;0.57;42.38;101726.44;5115169;28;20059;-70
2022/01/21 03:46:32;;;;;;;11.13;1.52;;;;;;;0.32;42.89;101724.94;5116749;28;20135;-70
2022/01/21 03:48:58;;;;;;;8.85;1.40;;;;;;;0.41;42.41;101729.78;5115389;28;20454;-70
2022/01/21 03:51:25;;;;;;;9.43;1.45;;;;;;;0.39;42.68;101736.91;5114094;28;20046;-71
2022/01/21 03:53:52;;;;;;;16.15;1.65;;;;;;;-0.29;43.58;101728.50;5115141;28;20054;-71
2022/01/21 03:56:19;;;;;;;12.15;1.13;;;;;;;0.31;42.73;101730.28;5115472;28;20049;-70
2022/01/21 03:58:49;;;;;;;7.53;1.05;;;;;;;0.11;42.80;101725.88;5104376;28;20048;-71
2022/01/21 04:01:18;;;;;;;11.20;1.50;;;;;;;-0.07;42.84;101736.31;5114717;28;20127;-70
2022/01/21 04:03:45;;;;;;;13.60;1.67;;;;;;;-0.25;43.39;101730.06;5115195;28;20052;-71
2022/01/21 04:06:11;;;;;;;7.93;1.35;;;;;;;0.19;42.64;101736.94;5113776;28;20102;-69
2022/01/21 04:08:37;;;;;;;10.32;1.20;;;;;;;0.12;42.66;101738.16;5115404;28;20047;-70
2022/01/21 04:11:04;;;;;;;10.20;1.90;;;;;;;0.11;42.55;101734.66;5113975;28;20126;-70
2022/01/21 04:13:30;;;;;;;10.68;1.35;;;;;;;0.02;42.55;101733.31;5113621;28;20093;-71
2022/01/21 04:15:58;;;;;;;6.70;1.30;;;;;;;-0.06;43.04;101734.53;5118137;28;20384;-70
2022/01/21 04:18:25;;;;;;;9.88;1.50;;;;;;;0.03;42.72;101742.06;5118839;28;20116;-70
2022/01/21 04:20:53;;;;;;;7.20;1.42;;;;;;;-0.01;42.50;101740.50;5118830;28;20062;-71
2022/01/21 04:23:21;;;;;;;10.98;1.67;;;;;;;0.19;42.12;101739.59;5118191;28;20387;-71
2022/01/21 04:25:48;;;;;;;9.55;1.20;;;;;;;0.32;42.01;101753.09;5119272;28;20051;-71
2022/01/21 04:28:15;;;;;;;18.40;1.98;;;;;;;0.02;42.66;101743.84;5119294;28;20082;-70
2022/01/21 04:30:42;;;;;;;9.05;1.48;;;;;;;0.12;42.47;101752.22;5119158;28;20176;-70
2022/01/21 04:33:09;;;;;;;10.15;1.42;;;;;;;-0.18;42.71;101757.03;5120693;28;20079;-71
2022/01/21 04:35:35;;;;;;;10.73;2.15;;;;;;;0.18;42.33;101744.00;5108165;28;20039;-70
2022/01/21 04:38:06;;;;;;;8.80;1.40;;;;;;;0.12;42.26;101748.72;5117892;28;20086;-70
2022/01/21 04:40:37;;;;;;;6.63;1.50;;;;;;;0.22;42.07;101744.75;5119641;28;20475;-70
2022/01/21 04:48:35;;;;;;;9.07;1.50;;;;;;;-0.20;42.41;101738.63;5118758;28;20042;-70
2022/01/21 04:51:14;;;;;;;9.57;1.50;;;;;;;0.05;42.31;101741.09;5118220;28;20469;-71
2022/01/21 04:53:43;;;;;;;11.10;1.40;;;;;;;0.01;42.16;101744.75;5119697;28;20082;-70
2022/01/21 04:56:11;;;;;;;5.68;1.42;;;;;;;-0.11;42.69;101740.03;5118559;28;20059;-71
2022/01/21 04:58:38;;;;;;;7.00;1.10;;;;;;;0.07;42.46;101740.16;5120156;28;20113;-71
2022/01/21 05:01:06;;;;;;;9.10;1.65;;;;;;;-0.12;42.77;101730.41;5118488;28;20040;-71
2022/01/21 05:03:35;;;;;;;11.48;1.58;;;;;;;-0.23;42.78;101727.34;5118783;28;20067;-70
2022/01/21 05:06:02;;;;;;;8.32;1.48;;;;;;;0.09;41.94;101741.81;5119059;28;20460;-70
2022/01/21 05:08:38;;;;;;;9.20;1.48;;;;;;;-0.21;42.66;101731.66;5119138;28;20067;-70
2022/01/21 05:11:05;;;;;;;10.68;1.58;;;;;;;-0.31;42.92;101734.75;5118208;28;20066;-70
2022/01/21 05:13:39;;;;;;;4.97;1.30;;;;;;;-0.10;42.73;101736.47;5118568;28;20067;-70
2022/01/21 05:16:30;;;;;;;11.88;2.20;;;;;;;-0.34;42.87;101738.38;5118445;28;20067;-70
2022/01/21 05:18:58;;;;;;;15.20;2.33;;;;;;;-0.20;42.74;101736.00;5117911;28;20101;-71
2022/01/21 05:21:24;;;;;;;14.10;1.27;;;;;;;-0.35;43.12;101731.38;5117928;28;20495;-72
2022/01/21 05:23:51;;;;;;;20.80;1.80;;;;;;;-0.43;43.62;101742.25;5118576;28;20126;-70
2022/01/21 05:26:18;;;;;;;7.18;1.15;;;;;;;-0.09;42.57;101740.81;5118782;28;20476;-70
2022/01/21 05:28:45;;;;;;;10.65;1.90;;;;;;;-0.26;42.89;101749.47;5118277;28;20047;-70
2022/01/21 05:31:11;;;;;;;14.88;1.70;;;;;;;-0.26;42.82;101745.94;5117052;28;20063;-70
2022/01/21 05:33:38;;;;;;;12.65;1.70;;;;;;;-0.51;43.40;101743.50;5111126;28;20044;-70
2022/01/21 05:36:04;;;;;;;13.77;2.13;;;;;;;0.03;42.39;101749.97;5118802;28;20043;-70
2022/01/21 05:38:31;;;;;;;8.00;1.38;;;;;;;-0.10;42.77;101752.28;5111646;28;20074;-70
2022/01/21 05:40:57;;;;;;;5.95;1.75;;;;;;;-0.26;42.89;101745.94;5118616;28;20067;-71
2022/01/21 05:43:24;;;;;;;8.20;1.92;;;;;;;-0.71;43.83;101739.03;5118440;28;20047;-70
2022/01/21 05:48:36;;;;;;;12.05;1.92;;;;;;;-0.06;42.27;101740.66;5118794;28;20463;-71
2022/01/21 05:51:02;;;;;;;8.93;1.27;;;;;;;-0.14;42.62;101732.25;5118102;28;20059;-71
2022/01/21 05:53:29;;;;;;;8.52;1.23;;;;;;;-0.14;42.52;101742.78;5117781;28;20040;-70
2022/01/21 05:56:01;;;;;;;10.10;1.80;;;;;;;-0.17;42.22;101739.44;5117093;28;20103;-70
2022/01/21 05:58:27;;;;;;;8.25;1.30;;;;;;;0.05;42.27;101734.91;5117381;28;20039;-71
2022/01/21 06:00:54;;;;;;;18.55;2.28;;;;;;;-0.05;42.20;101736.25;5118154;28;20079;-71
2022/01/21 06:03:20;;;;;;;6.00;0.95;;;;;;;-0.08;42.41;101734.63;5116621;28;20071;-70
2022/01/21 06:05:50;;;;;;;12.27;1.95;;;;;;;-0.02;42.31;101731.72;5115714;28;20050;-70
2022/01/21 06:08:16;;;;;;;8.38;1.35;;;;;;;-0.12;42.21;101737.44;5118188;28;20056;-70
2022/01/21 06:10:43;;;;;;;10.25;1.58;;;;;;;-0.16;42.59;101731.44;5117421;28;20120;-70
2022/01/21 06:13:09;;;;;;;8.48;1.48;;;;;;;-0.07;42.57;101733.69;5119104;28;20035;-70
2022/01/21 06:15:35;;;;;;;9.98;1.77;;;;;;;-0.29;42.63;101736.41;5117140;28;20079;-71
2022/01/21 06:18:02;;;;;;;9.75;1.60;;;;;;;0.01;41.94;101731.56;5117495;28;20051;-70
2022/01/21 06:20:30;;;;;;;8.15;1.90;;;;;;;-0.19;42.55;101736.88;5115789;28;20447;-71
2022/01/21 06:22:56;;;;;;;10.32;2.17;;;;;;;-0.18;42.90;101735.94;5116227;28;20067;-70
2022/01/21 06:25:23;;;;;;;8.15;1.83;;;;;;;-0.09;42.39;101730.25;5116780;28;20099;-70
2022/01/21 06:27:49;;;;;;;18.23;1.83;;;;;;;-0.06;42.58;101729.28;5117115;28;20066;-71
2022/01/21 06:30:16;;;;;;;10.93;1.60;;;;;;;-0.31;42.79;101732.13;5117608;28;20369;-71
2022/01/21 06:32:42;;;;;;;14.70;2.33;;;;;;;-0.47;43.84;101737.16;5118387;28;20074;-72
2022/01/21 06:35:10;;;;;;;5.85;1.27;;;;;;;-0.27;43.46;101737.19;5107819;28;20095;-72
2022/01/21 06:37:38;;;;;;;8.43;1.88;;;;;;;0.14;42.26;101753.00;5117348;28;20079;-70
2022/01/21 06:40:07;;;;;;;9.82;1.35;;;;;;;0.05;42.52;101749.00;5116845;28;20087;-70
2022/01/21 06:42:34;;;;;;;9.98;1.63;;;;;;;0.18;42.52;101751.09;5118416;28;20135;-70
2022/01/21 06:45:01;;;;;;;15.30;2.35;;;;;;;0.10;42.51;101755.84;5118164;27;20052;-70
2022/01/21 06:47:28;;;;;;;13.48;1.83;;;;;;;-0.10;43.51;101752.28;5119896;28;20055;-70
2022/01/21 06:49:58;;;;;;;9.70;2.10;;;;;;;-0.45;43.94;101752.00;5119861;28;20051;-70
2022/01/21 06:52:26;;;;;;;17.63;1.52;;;;;;;-0.09;43.57;101756.63;5118857;28;20048;-70
2022/01/21 06:54:53;;;;;;;10.75;1.55;;;;;;;-0.26;43.74;101759.13;5123134;28;20047;-70
2022/01/21 06:57:20;;;;;;;6.45;1.42;;;;;;;0.12;43.51;101751.34;5120264;28;20070;-71
2022/01/21 06:59:47;;;;;;;13.82;1.70;;;;;;;0.18;43.33;101759.84;5117696;28;20074;-70
2022/01/21 07:02:15;;;;;;;10.27;1.77;;;;;;;0.27;43.07;101758.59;5116868;28;20127;-70
2022/01/21 07:04:41;;;;;;;9.20;1.50;;;;;;;0.27;42.92;101755.97;5117153;28;20075;-71
2022/01/21 07:07:08;;;;;;;14.95;2.42;;;;;;;0.17;43.32;101762.56;5114791;28;20074;-70
2022/01/21 07:09:34;;;;;;;14.20;4.53;;;;;;;0.17;43.29;101768.69;5116793;28;20111;-70
2022/01/21 07:12:00;;;;;;;28.30;5.65;;;;;;;0.15;43.20;101778.44;5117596;28;20460;-70
2022/01/21 07:14:27;;;;;;;22.38;2.60;;;;;;;0.13;43.33;101771.56;5117877;28;20039;-70
2022/01/21 07:16:53;;;;;;;10.90;1.85;;;;;;;0.03;43.87;101771.94;5117833;28;20356;-71
2022/01/21 07:19:20;;;;;;;19.65;2.17;;;;;;;0.20;43.43;101767.72;5115815;28;20101;-73
2022/01/21 07:21:47;;;;;;;14.50;1.95;;;;;;;0.02;43.97;101779.94;5116630;28;20068;-72
2022/01/21 07:24:13;;;;;;;21.35;2.08;;;;;;;0.05;44.23;101783.31;5117843;28;20054;-71
2022/01/21 07:26:40;;;;;;;17.33;2.88;;;;;;;-0.19;44.56;101768.53;5116420;28;20055;-73
2022/01/21 07:29:06;;;;;;;13.77;1.83;;;;;;;0.18;44.17;101773.03;5118117;28;20126;-72
2022/01/21 07:31:33;;;;;;;14.93;2.40;;;;;;;0.33;43.74;101776.81;5116914;28;20475;-72
2022/01/21 07:34:04;;;;;;;8.70;1.75;;;;;;;0.34;43.92;101782.94;5116773;28;20070;-72
2022/01/21 07:36:31;;;;;;;15.05;1.98;;;;;;;0.10;44.88;101788.38;5117726;28;20043;-73
2022/01/21 07:38:57;;;;;;;13.38;1.98;;;;;;;0.14;44.52;101789.94;5116476;28;20048;-72
2022/01/21 07:41:24;;;;;;;17.45;2.25;;;;;;;-0.05;45.28;101791.66;5116799;28;20422;-72
2022/01/21 07:43:52;;;;;;;18.48;2.00;;;;;;;0.03;45.07;101795.69;5116920;28;20055;-70
2022/01/21 07:46:20;;;;;;;16.55;2.22;;;;;;;0.23;44.86;101794.84;5115503;28;20108;-72
2022/01/21 07:48:46;;;;;;;12.07;1.95;;;;;;;-0.01;45.35;101801.16;5115269;28;20098;-74
2022/01/21 07:51:13;;;;;;;13.93;2.38;;;;;;;0.41;44.46;101813.41;5117146;28;20064;-70
2022/01/21 07:53:40;;;;;;;17.50;2.30;;;;;;;0.37;44.72;101807.41;5115860;28;20051;-69
2022/01/21 07:56:06;;;;;;;10.98;2.42;;;;;;;0.50;44.78;101803.31;5114733;28;20122;-72
2022/01/21 07:58:33;;;;;;;10.15;2.00;;;;;;;0.23;45.39;101788.69;5115685;28;20067;-70
2022/01/21 08:00:59;;;;;;;17.48;2.65;;;;;;;0.29;45.33;101789.28;5115203;28;20082;-70
2022/01/21 08:03:26;;;;;;;14.52;2.47;;;;;;;0.22;45.50;101795.72;5116687;28;20047;-70
2022/01/21 08:05:53;;;;;;;13.70;2.15;;;;;;;0.43;45.42;101801.00;5115817;28;20077;-70
2022/01/21 08:08:19;;;;;;;13.43;2.60;;;;;;;0.55;44.93;101802.25;5115807;28;20436;-71
2022/01/21 08:10:50;;;;;;;24.98;3.22;;;;;;;0.42;45.51;101805.41;5115109;28;20048;-71
2022/01/21 08:13:16;;;;;;;13.10;4.32;;;;;;;0.55;45.17;101799.59;5116079;28;20043;-71
2022/01/21 08:15:43;;;;;;;16.40;3.00;;;;;;;0.58;45.31;101804.75;5115894;28;20063;-70
2022/01/21 08:18:09;;;;;;;21.77;3.45;;;;;;;0.27;46.13;101800.81;5115617;28;20055;-70
2022/01/21 08:20:36;;;;;;;19.48;3.50;;;;;;;0.34;46.00;101806.69;5115896;28;20039;-71
2022/01/21 08:23:02;;;;;;;21.40;2.90;;;;;;;0.00;47.33;101801.09;5097497;28;20111;-72
2022/01/21 08:25:29;;;;;;;14.15;2.67;;;;;;;0.81;45.35;101809.81;5116788;28;20092;-72
2022/01/21 08:27:56;;;;;;;17.02;2.85;;;;;;;-0.43;48.28;101805.53;5116646;28;20067;-71
2022/01/21 08:30:23;;;;;;;19.90;2.95;;;;;;;0.29;46.63;101804.25;5115314;28;20070;-70
2022/01/21 08:32:49;;;;;;;21.48;3.20;;;;;;;0.55;45.69;101802.25;5115888;28;20060;-70
2022/01/21 08:35:16;;;;;;;15.45;2.63;;;;;;;0.50;46.27;101803.31;5117062;28;20387;-70
2022/01/21 08:37:42;;;;;;;20.20;3.15;;;;;;;0.63;45.95;101802.75;5115585;28;20061;-70
2022/01/21 08:40:10;;;;;;;21.92;3.40;;;;;;;0.82;46.04;101808.91;5114099;28;20066;-71
2022/01/21 08:42:37;;;;;;;16.15;2.10;;;;;;;0.37;47.24;101809.22;5114787;28;20047;-72
2022/01/21 08:45:05;;;;;;;19.13;3.85;;;;;;;0.11;47.63;101803.25;5114847;28;20075;-71
2022/01/21 08:47:31;;;;;;;14.20;2.15;;;;;;;0.47;47.34;101805.22;5114119;28;20040;-71
2022/01/21 08:50:01;;;;;;;18.52;2.78;;;;;;;0.40;46.73;101807.28;5116806;28;20075;-71
2022/01/21 08:52:29;;;;;;;16.67;2.30;;;;;;;0.67;46.75;101807.81;5115543;28;20035;-71
2022/01/21 08:54:55;;;;;;;25.35;3.05;;;;;;;0.98;45.81;101806.41;5115004;28;20130;-72
2022/01/21 08:57:22;;;;;;;16.58;2.38;;;;;;;0.88;46.46;101811.25;5114981;28;20070;-71
2022/01/21 08:59:49;;;;;;;25.77;3.17;;;;;;;0.79;46.66;101808.19;5116117;28;20127;-71
2022/01/21 09:02:16;;;;;;;28.10;4.35;;;;;;;0.59;47.10;101812.59;5119874;28;20100;-71
2022/01/21 09:04:42;;;;;;;17.55;3.38;;;;;;;1.09;46.42;101811.19;5119210;28;20077;-72
2022/01/21 09:07:09;;;;;;;22.92;3.22;;;;;;;1.12;46.44;101811.03;5119843;28;20074;-72
2022/01/21 09:09:35;;;;;;;19.40;3.70;;;;;;;1.44;45.50;101805.09;5117883;28;20065;-71
2022/01/21 09:12:02;;;;;;;33.75;4.40;;;;;;;1.21;45.86;101805.31;5119160;28;20075;-71
2022/01/21 09:14:30;;;;;;;14.60;3.08;;;;;;;1.36;45.68;101807.22;5119027;28;20129;-71
2022/01/21 09:16:57;;;;;;;19.35;3.13;;;;;;;1.44;45.75;101807.72;5119699;28;20039;-71
2022/01/21 09:19:24;;;;;;;20.65;3.22;;;;;;;1.40;46.07;101816.75;5113574;28;20046;-71
2022/01/21 09:21:52;;;;;;;21.20;2.92;;;;;;;1.29;46.35;101821.66;5117906;28;20047;-72
2022/01/21 09:24:19;;;;;;;20.90;2.78;;;;;;;1.46;46.06;101827.00;5117369;28;20048;-71
2022/01/21 09:26:46;;;;;;;18.13;2.90;;;;;;;1.60;45.74;101828.13;5118367;28;20070;-70
2022/01/21 09:29:13;;;;;;;17.90;2.75;;;;;;;1.45;46.24;101827.94;5117315;28;20048;-70
2022/01/21 09:31:39;;;;;;;18.17;2.28;;;;;;;1.66;45.57;101833.13;5115418;27;20071;-73
2022/01/21 09:34:21;;;;;;;10.48;2.22;;;;;;;1.12;46.82;101832.19;5117581;28;20046;-72
2022/01/21 09:36:55;;;;;;;18.73;2.33;;;;;;;1.32;46.92;101833.91;5119871;28;20050;-72
2022/01/21 09:39:26;;;;;;;14.20;2.25;;;;;;;1.57;46.42;101833.56;5114397;28;20126;-70
2022/01/21 09:41:57;;;;;;;16.15;3.20;;;;;;;1.93;45.23;101836.22;5118103;28;20098;-71
2022/01/21 09:44:23;;;;;;;10.05;2.10;;;;;;;1.27;46.86;101836.75;5117386;28;20468;-72
2022/01/21 09:46:51;;;;;;;24.38;2.72;;;;;;;1.80;46.07;101832.44;5116904;28;20167;-70
2022/01/21 09:49:28;;;;;;;17.67;3.17;;;;;;;2.69;44.35;101825.25;5118599;28;20470;-71
2022/01/21 09:52:03;;;;;;;17.30;2.65;;;;;;;3.30;43.09;101816.56;5115398;28;20054;-73
2022/01/21 09:54:36;;;;;;;23.13;2.88;;;;;;;3.22;42.80;101821.44;5116364;28;20048;-73
2022/01/21 09:57:05;;;;;;;13.85;2.70;;;;;;;4.07;40.97;101832.44;5115953;28;20075;-73
2022/01/21 09:59:35;;;;;;;24.35;3.25;;;;;;;4.57;39.94;101822.41;5114031;28;20443;-73
2022/01/21 10:02:07;;;;;;;15.00;2.30;;;;;;;5.01;38.95;101818.78;5097073;28;20451;-74
2022/01/21 10:04:41;;;;;;;16.75;3.47;;;;;;;5.47;38.31;101814.00;5116169;28;20039;-70
2022/01/21 10:07:13;;;;;;;14.82;2.80;;;;;;;5.79;37.63;101828.81;5118314;28;20531;-70
2022/01/21 10:09:41;;;;;;;14.00;2.50;;;;;;;6.28;36.54;101820.19;5117342;28;20059;-71
2022/01/21 10:12:08;;;;;;;19.98;3.33;;;;;;;6.92;35.63;101826.34;5113933;28;20100;-71
2022/01/21 10:14:35;;;;;;;20.92;6.70;;;;;;;7.38;34.76;101825.69;5115578;28;20067;-72
2022/01/21 10:17:01;;;;;;;20.02;4.70;;;;;;;7.50;34.33;101822.13;5115000;28;20047;-71
2022/01/21 10:19:33;;;;;;;21.08;3.70;;;;;;;7.74;33.59;101818.56;5117795;27;20099;-73
2022/01/21 10:22:04;;;;;;;;;;;;;;;8.04;32.81;101816.31;5116393;28;20155;-71
2022/01/21 10:24:33;;;;;;;10.85;2.15;;;;;;;7.85;33.32;101816.84;5117434;28;20018;-71
2022/01/21 10:27:00;;;;;;;18.90;2.65;;;;;;;7.81;33.37;101826.03;5114807;28;20067;-72
2022/01/21 10:29:38;;;;;;;20.35;3.03;;;;;;;8.27;32.11;101819.91;5116125;28;20456;-71
2022/01/21 10:32:07;;;;;;;10.80;2.60;;;;;;;8.30;32.11;101826.84;5115774;28;20502;-72
2022/01/21 10:34:40;;;;;;;19.73;4.80;;;;;;;7.61;34.61;101821.34;5097154;28;20073;-75
2022/01/21 10:37:30;;;;;;;19.88;4.00;;;;;;;8.22;32.48;101831.91;5114938;28;20094;-70
2022/01/21 10:40:05;;;;;;;19.55;3.35;;;;;;;8.00;33.37;101828.19;5116637;28;20108;-72
2022/01/21 10:42:41;;;;;;;14.82;2.45;;;;;;;7.80;33.33;101826.16;5106680;28;20421;-71
2022/01/21 10:45:13;;;;;;;17.88;3.20;;;;;;;7.55;33.00;101829.78;5098388;28;20050;-71
2022/01/21 10:47:47;;;;;;;15.10;2.58;;;;;;;7.58;33.34;101833.09;5096181;28;20067;-70
2022/01/21 10:50:17;;;;;;;18.73;3.20;;;;;;;7.92;33.36;101825.28;5114389;28;20097;-72
2022/01/21 10:52:51;;;;;;;12.18;2.30;;;;;;;7.99;34.95;101826.50;5108167;28;20487;-71
2022/01/21 10:55:27;;;;;;;11.75;2.40;;;;;;;7.76;34.35;101830.00;5116168;28;20123;-72
2022/01/21 10:58:06;;;;;;;16.35;2.92;;;;;;;8.19;34.27;101834.81;5115736;28;20365;-72
2022/01/21 11:00:33;;;;;;;13.18;2.42;;;;;;;7.58;33.87;101825.06;5115141;28;20130;-72
2022/01/21 11:03:13;;;;;;;13.50;2.78;;;;;;;7.28;34.63;101830.84;5114168;28;20063;-72
2022/01/21 11:05:47;;;;;;;11.30;2.72;;;;;;;7.39;34.09;101825.56;5116177;28;20127;-72
2022/01/21 11:08:26;;;;;;;13.80;3.08;;;;;;;7.35;34.23;101831.25;5115687;28;20042;-72
2022/01/21 11:10:52;;;;;;;12.15;2.20;;;;;;;7.07;34.49;101830.59;5114161;28;20039;-72
2022/01/21 11:13:18;;;;;;;14.20;2.60;;;;;;;7.17;34.43;101831.63;5115314;28;20076;-72
2022/01/21 11:15:47;;;;;;;15.15;2.47;;;;;;;7.37;34.24;101830.19;5114418;28;20048;-72
2022/01/21 11:18:30;;;;;;;8.80;2.08;;;;;;;6.71;34.76;101829.59;5114607;28;20091;-73
2022/01/21 11:21:05;;;;;;;13.82;2.50;;;;;;;6.74;34.77;101838.31;5114110;28;20039;-72
2022/01/21 11:23:33;;;;;;;16.25;2.85;;;;;;;6.90;34.57;101841.59;5113496;28;20047;-72
2022/01/21 11:26:03;;;;;;;20.67;2.88;;;;;;;6.13;35.22;101843.38;5116195;28;20514;-72
2022/01/21 11:28:37;;;;;;;14.00;2.72;;;;;;;6.60;34.61;101833.94;5114945;28;20134;-72
2022/01/21 11:31:03;;;;;;;21.25;2.42;;;;;;;6.37;35.21;101848.88;5116287;28;20051;-73
2022/01/21 11:33:30;;;;;;;11.50;2.38;;;;;;;6.55;34.87;101838.75;5115770;28;20054;-72
2022/01/21 11:35:57;;;;;;;14.35;2.38;;;;;;;7.09;34.49;101834.00;5116819;28;20040;-73
2022/01/21 11:38:27;;;;;;;12.15;2.50;;;;;;;6.68;34.88;101813.78;5116491;28;20101;-72
2022/01/21 11:40:54;;;;;;;11.98;3.10;;;;;;;7.22;33.70;101825.94;5117494;28;20044;-71
2022/01/21 11:43:22;;;;;;;13.35;2.50;;;;;;;6.88;33.77;101814.22;5117998;28;20051;-72
2022/01/21 11:48:50;;;;;;;9.40;2.45;;;;;;;6.79;33.92;101810.38;5117439;28;20051;-72
2022/01/21 11:51:21;;;;;;;;;;;;;;;7.27;33.29;101807.78;5117136;28;20067;-72
2022/01/21 11:53:56;;;;;;;8.68;2.05;;;;;;;7.27;33.60;101798.94;5116767;28;19928;-71
2022/01/21 11:56:45;;;;;;;12.60;1.85;;;;;;;7.64;33.14;101797.91;5090067;28;20127;-73
2022/01/21 11:59:25;;;;;;;12.18;2.20;;;;;;;7.47;32.65;101802.81;5113374;28;20097;-72
2022/01/21 12:01:52;;;;;;;14.07;2.10;;;;;;;7.98;32.18;101800.72;5116077;28;20458;-72
2022/01/21 12:04:31;;;;;;;9.27;2.20;;;;;;;7.99;31.70;101796.25;5115132;28;20063;-72
2022/01/21 12:06:59;;;;;;;12.82;2.20;;;;;;;7.50;31.86;101808.78;5116463;28;20119;-73
2022/01/21 12:09:54;;;;;;;10.80;2.30;;;;;;;7.22;32.64;101799.25;5116162;28;20055;-71
2022/01/21 12:12:23;;;;;;;15.50;4.45;;;;;;;8.19;31.37;101797.38;5115650;28;20046;-72
2022/01/21 12:14:55;;;;;;;12.18;3.92;;;;;;;8.44;30.89;101794.53;5113967;28;20185;-72
2022/01/21 12:17:47;;;;;;;8.68;2.53;;;;;;;8.08;30.88;101801.72;5114439;28;20131;-72
2022/01/21 12:20:13;;;;;;;7.00;1.73;;;;;;;8.54;30.69;101790.16;5098472;28;20059;-72
2022/01/21 12:22:40;;;;;;;11.45;2.33;;;;;;;9.72;28.99;101802.03;5115792;28;20051;-72